createdAt,value
2019-05-14T00:00:13.756Z,1.63
2019-05-14T00:02:42.990Z,1.10
2019-05-14T00:05:12.297Z,1.60
2019-05-14T00:07:41.570Z,1.73
2019-05-14T00:10:11.922Z,1.50
2019-05-14T00:12:41.851Z,1.60
2019-05-14T00:15:11.515Z,1.43
2019-05-14T00:17:41.584Z,1.70
2019-05-14T00:20:13.300Z,1.80
2019-05-14T00:22:42.035Z,1.60
2019-05-14T00:25:11.684Z,1.40
2019-05-14T00:27:41.552Z,1.50
2019-05-14T00:30:11.611Z,1.80
2019-05-14T00:32:41.429Z,1.50
2019-05-14T00:35:11.265Z,1.60
2019-05-14T00:37:41.448Z,1.50
2019-05-14T00:40:11.767Z,2.03
2019-05-14T00:42:41.573Z,1.40
2019-05-14T00:45:11.634Z,1.33
2019-05-14T00:47:41.841Z,2.13
2019-05-14T00:50:11.520Z,2.17
2019-05-14T00:52:44.235Z,2.30
2019-05-14T00:55:11.915Z,2.37
2019-05-14T00:57:42.492Z,1.77
2019-05-14T01:00:12.196Z,1.90
2019-05-14T01:02:41.669Z,2.40
2019-05-14T01:05:12.452Z,2.63
2019-05-14T01:07:42.306Z,2.30
2019-05-14T01:10:11.837Z,2.60
2019-05-14T01:12:41.557Z,2.00
2019-05-14T01:15:14.093Z,2.80
2019-05-14T01:17:42.383Z,2.07
2019-05-14T01:20:12.335Z,2.67
2019-05-14T01:22:42.284Z,2.67
2019-05-14T01:25:12.497Z,2.20
2019-05-14T01:27:41.633Z,2.43
2019-05-14T01:30:12.451Z,2.87
2019-05-14T01:32:42.194Z,2.57
2019-05-14T01:35:12.236Z,3.20
2019-05-14T01:37:41.805Z,2.47
2019-05-14T01:40:11.537Z,1.83
2019-05-14T01:42:41.608Z,2.73
2019-05-14T01:45:24.484Z,3.30
2019-05-14T01:47:41.990Z,2.50
2019-05-14T01:50:11.516Z,3.13
2019-05-14T01:52:41.510Z,3.50
2019-05-14T01:55:11.565Z,3.50
2019-05-14T01:57:42.429Z,3.67
2019-05-14T02:00:12.032Z,3.13
2019-05-14T02:02:41.759Z,3.00
2019-05-14T02:05:12.455Z,3.00
2019-05-14T02:07:42.159Z,3.17
2019-05-14T02:10:11.833Z,3.00
2019-05-14T02:12:42.393Z,2.80
2019-05-14T02:15:12.220Z,3.60
2019-05-14T02:17:41.671Z,3.73
2019-05-14T02:20:12.563Z,3.40
2019-05-14T02:22:41.972Z,2.93
2019-05-14T02:25:11.791Z,2.70
2019-05-14T02:27:41.428Z,2.93
2019-05-14T02:30:11.099Z,3.13
2019-05-14T02:32:40.923Z,2.90
2019-05-14T02:35:10.494Z,3.47
2019-05-14T02:37:40.560Z,3.30
2019-05-14T02:40:10.325Z,4.03
2019-05-14T02:42:40.388Z,3.50
2019-05-14T02:45:10.231Z,3.50
2019-05-14T02:47:39.919Z,3.57
2019-05-14T02:50:10.117Z,3.47
2019-05-14T02:52:40.460Z,3.83
2019-05-14T02:55:10.047Z,3.90
2019-05-14T02:57:40.637Z,3.20
2019-05-14T03:00:10.549Z,4.40
2019-05-14T03:02:40.402Z,4.30
2019-05-14T03:05:10.283Z,4.10
2019-05-14T03:07:39.852Z,4.37
2019-05-14T03:10:09.887Z,5.77
2019-05-14T03:12:39.881Z,4.37
2019-05-14T03:15:10.015Z,4.00
2019-05-14T03:17:40.429Z,4.10
2019-05-14T03:20:10.293Z,3.90
2019-05-14T03:22:54.823Z,4.60
2019-05-14T03:25:10.595Z,4.10
2019-05-14T03:27:40.653Z,4.60
2019-05-14T03:30:12.533Z,3.83
2019-05-14T03:32:42.784Z,3.83
2019-05-14T03:35:14.232Z,3.67
2019-05-14T03:37:43.636Z,3.57
2019-05-14T03:40:12.787Z,3.40
2019-05-14T03:42:41.896Z,3.20
2019-05-14T03:45:11.344Z,3.10
2019-05-14T03:47:40.477Z,3.20
2019-05-14T03:50:10.346Z,2.60
2019-05-14T03:52:40.107Z,3.43
2019-05-14T03:55:09.916Z,3.20
2019-05-14T03:57:40.151Z,2.57
2019-05-14T04:00:10.424Z,2.90
2019-05-14T04:02:40.190Z,2.77
2019-05-14T04:05:09.799Z,2.97
2019-05-14T04:07:40.754Z,3.60
2019-05-14T04:10:10.531Z,2.93
2019-05-14T04:12:42.389Z,2.93
2019-05-14T04:15:11.701Z,3.80
2019-05-14T04:17:42.782Z,2.70
2019-05-14T04:20:12.157Z,3.50
2019-05-14T04:22:41.851Z,2.90
2019-05-14T04:25:11.493Z,3.37
2019-05-14T04:27:41.568Z,3.57
2019-05-14T04:30:12.545Z,3.80
2019-05-14T04:32:42.574Z,3.07
2019-05-14T04:35:12.099Z,3.20
2019-05-14T04:37:42.048Z,4.20
2019-05-14T04:40:12.786Z,3.83
2019-05-14T04:42:42.146Z,3.43
2019-05-14T04:45:11.641Z,2.73
2019-05-14T04:47:42.055Z,3.30
2019-05-14T04:50:11.957Z,3.40
2019-05-14T04:52:41.146Z,3.13
2019-05-14T04:55:10.827Z,2.63
2019-05-14T04:57:40.040Z,2.97
2019-05-14T05:00:12.217Z,2.73
2019-05-14T05:02:40.195Z,3.53
2019-05-14T05:05:09.647Z,3.00
2019-05-14T05:07:40.349Z,3.20
2019-05-14T05:10:10.371Z,3.70
2019-05-14T05:12:39.829Z,3.90
2019-05-14T05:15:09.679Z,3.00
2019-05-14T05:17:47.182Z,3.43
2019-05-14T05:20:10.433Z,3.20
2019-05-14T05:22:39.991Z,4.10
2019-05-14T05:25:09.845Z,3.70
2019-05-14T05:27:39.000Z,5.20
2019-05-14T05:30:08.625Z,4.23
2019-05-14T05:32:39.213Z,3.20
2019-05-14T05:35:09.674Z,3.40
2019-05-14T05:37:38.828Z,3.10
2019-05-14T05:40:09.194Z,3.80
2019-05-14T05:42:38.938Z,3.00
2019-05-14T05:45:10.597Z,4.10
2019-05-14T05:47:54.044Z,3.30
2019-05-14T05:50:10.967Z,4.07
2019-05-14T05:52:40.107Z,3.60
2019-05-14T05:55:09.847Z,3.73
2019-05-14T05:57:39.411Z,3.70
2019-05-14T06:00:09.624Z,3.87
2019-05-14T06:02:39.872Z,3.70
2019-05-14T06:05:09.536Z,5.60
2019-05-14T06:07:39.460Z,3.97
2019-05-14T06:10:09.486Z,3.67
2019-05-14T06:12:39.041Z,4.03
2019-05-14T06:15:08.925Z,4.97
2019-05-14T06:17:39.083Z,3.67
2019-05-14T06:20:08.969Z,3.93
2019-05-14T06:22:38.587Z,4.30
2019-05-14T06:25:10.938Z,4.43
2019-05-14T06:27:38.781Z,3.53
2019-05-14T06:30:09.681Z,4.03
2019-05-14T06:32:38.969Z,3.47
2019-05-14T06:35:09.101Z,3.10
2019-05-14T06:37:38.676Z,3.20
2019-05-14T06:40:09.333Z,3.63
2019-05-14T06:42:39.440Z,3.80
2019-05-14T06:45:09.191Z,3.67
2019-05-14T06:47:38.501Z,3.47
2019-05-14T06:50:08.465Z,4.20
2019-05-14T06:52:38.779Z,4.30
2019-05-14T06:55:08.961Z,3.50
2019-05-14T06:57:39.353Z,3.50
2019-05-14T07:00:09.209Z,3.00
2019-05-14T07:02:43.495Z,3.63
2019-05-14T07:05:09.364Z,2.83
2019-05-14T07:07:40.491Z,2.67
2019-05-14T07:10:10.173Z,3.30
2019-05-14T07:12:39.403Z,3.53
2019-05-14T07:15:09.431Z,3.63
2019-05-14T07:17:38.724Z,3.57
2019-05-14T07:20:09.470Z,2.50
2019-05-14T07:22:39.082Z,2.80
2019-05-14T07:25:09.917Z,3.27
2019-05-14T07:27:39.458Z,2.70
2019-05-14T07:30:09.873Z,2.53
2019-05-14T07:32:39.658Z,2.93
2019-05-14T07:35:09.541Z,2.30
2019-05-14T07:37:39.539Z,2.53
2019-05-14T07:40:11.267Z,1.87
2019-05-14T07:42:40.176Z,2.73
2019-05-14T07:45:09.929Z,2.30
2019-05-14T07:47:39.161Z,2.83
2019-05-14T07:50:09.142Z,1.97
2019-05-14T07:52:45.378Z,1.63
2019-05-14T07:55:09.880Z,1.50
2019-05-14T07:57:39.429Z,1.60
2019-05-14T08:00:10.433Z,2.27
2019-05-14T08:02:39.587Z,1.53
2019-05-14T08:05:09.511Z,1.50
2019-05-14T08:07:38.959Z,2.50
2019-05-14T08:10:09.217Z,2.07
2019-05-14T08:12:39.120Z,1.47
2019-05-14T08:15:17.791Z,2.20
2019-05-14T08:17:40.301Z,1.70
2019-05-14T08:20:10.289Z,1.63
2019-05-14T08:22:39.582Z,2.03
2019-05-14T08:25:09.344Z,2.33
2019-05-14T08:27:39.033Z,1.80
2019-05-14T08:30:09.092Z,1.80
2019-05-14T08:32:39.093Z,1.93
2019-05-14T08:35:09.155Z,2.40
2019-05-14T08:37:38.838Z,1.60
2019-05-14T08:40:09.555Z,1.90
2019-05-14T08:42:38.851Z,1.70
2019-05-14T08:45:12.732Z,2.40
2019-05-14T08:47:39.779Z,1.77
2019-05-14T08:50:09.431Z,1.80
2019-05-14T08:52:39.368Z,1.83
2019-05-14T08:55:13.204Z,2.03
2019-05-14T08:57:40.433Z,2.23
2019-05-14T09:00:13.712Z,1.80
2019-05-14T09:02:41.037Z,1.70
2019-05-14T09:05:10.933Z,1.90
2019-05-14T09:07:40.432Z,1.70
2019-05-14T09:10:09.673Z,1.83
2019-05-14T09:12:39.025Z,1.67
2019-05-14T09:15:09.758Z,1.50
2019-05-14T09:17:39.396Z,1.60
2019-05-14T09:20:11.651Z,1.47
2019-05-14T09:22:40.094Z,1.90
2019-05-14T09:25:09.674Z,1.83
2019-05-14T09:27:39.080Z,1.80
2019-05-14T09:30:09.799Z,2.17
2019-05-14T09:32:39.250Z,2.40
2019-05-14T09:35:09.927Z,2.00
2019-05-14T09:37:39.939Z,2.43
2019-05-14T09:40:09.382Z,2.20
2019-05-14T09:42:39.297Z,2.03
2019-05-14T09:45:11.204Z,1.80
2019-05-14T09:47:40.135Z,2.33
2019-05-14T09:50:22.838Z,1.60
2019-05-14T09:52:41.782Z,2.00
2019-05-14T09:55:11.510Z,2.10
2019-05-14T09:57:40.612Z,1.83
2019-05-14T10:00:10.657Z,1.90
2019-05-14T10:02:39.834Z,2.20
2019-05-14T10:05:09.394Z,1.40
2019-05-14T10:07:39.403Z,1.77
2019-05-14T10:10:09.569Z,2.30
2019-05-14T10:12:51.211Z,1.90
2019-05-14T10:15:10.737Z,1.73
2019-05-14T10:17:39.844Z,1.90
2019-05-14T10:20:09.185Z,2.43
2019-05-14T10:22:39.796Z,1.80
2019-05-14T10:25:09.421Z,1.90
2019-05-14T10:27:38.617Z,1.87
2019-05-14T10:30:09.844Z,1.90
2019-05-14T10:32:41.383Z,1.93
2019-05-14T10:35:10.437Z,1.90
2019-05-14T10:37:40.201Z,1.73
2019-05-14T10:40:10.711Z,2.00
2019-05-14T10:42:40.361Z,1.93
2019-05-14T10:45:12.823Z,2.27
2019-05-14T10:47:41.264Z,2.37
2019-05-14T10:50:13.735Z,1.77
2019-05-14T10:52:42.933Z,1.97
2019-05-14T10:55:12.275Z,2.43
2019-05-14T10:57:41.446Z,2.43
2019-05-14T11:00:11.123Z,1.77
2019-05-14T11:02:40.424Z,1.63
2019-05-14T11:05:09.740Z,1.90
2019-05-14T11:07:41.798Z,2.00
2019-05-14T11:10:10.187Z,1.60
2019-05-14T11:12:39.813Z,2.00
2019-05-14T11:15:09.808Z,2.00
2019-05-14T11:17:40.653Z,1.63
2019-05-14T11:20:10.244Z,1.60
2019-05-14T11:22:39.437Z,2.10
2019-05-14T11:25:09.385Z,1.87
2019-05-14T11:27:40.349Z,1.87
2019-05-14T11:30:10.349Z,1.53
2019-05-14T11:32:39.457Z,1.90
2019-05-14T11:35:12.962Z,1.80
2019-05-14T11:37:41.469Z,2.03
2019-05-14T11:40:11.061Z,1.73
2019-05-14T11:42:40.188Z,2.20
2019-05-14T11:45:10.400Z,1.73
2019-05-14T11:47:39.580Z,1.80
2019-05-14T11:50:10.049Z,2.00
2019-05-14T11:52:39.368Z,1.73
2019-05-14T11:55:09.201Z,1.90
2019-05-14T11:57:38.450Z,2.03
2019-05-14T12:00:08.770Z,2.03
2019-05-14T12:02:38.636Z,1.60
2019-05-14T12:05:09.282Z,1.40
2019-05-14T12:07:38.833Z,1.83
2019-05-14T12:10:09.096Z,1.87
2019-05-14T12:12:38.456Z,1.60
2019-05-14T12:15:09.028Z,1.63
2019-05-14T12:17:39.357Z,1.50
2019-05-14T12:20:10.301Z,1.73
2019-05-14T12:22:39.642Z,1.27
2019-05-14T12:25:09.192Z,1.30
2019-05-14T12:27:38.914Z,1.70
2019-05-14T12:30:09.999Z,1.67
2019-05-14T12:32:39.868Z,1.50
2019-05-14T12:35:09.340Z,2.10
2019-05-14T12:37:39.080Z,1.70
2019-05-14T12:40:09.129Z,1.50
2019-05-14T12:42:39.270Z,2.00
2019-05-14T12:45:09.641Z,1.57
2019-05-14T12:47:38.758Z,1.50
2019-05-14T12:50:09.339Z,1.23
2019-05-14T12:52:39.080Z,1.70
2019-05-14T12:55:09.395Z,1.70
2019-05-14T12:57:39.696Z,1.40
2019-05-14T13:00:10.553Z,1.50
2019-05-14T13:02:39.656Z,1.10
2019-05-14T13:05:09.225Z,1.30
2019-05-14T13:07:41.413Z,1.43
2019-05-14T13:10:10.082Z,1.53
2019-05-14T13:12:39.449Z,2.03
2019-05-14T13:15:08.964Z,1.80
2019-05-14T13:17:38.884Z,1.57
2019-05-14T13:20:13.700Z,1.20
2019-05-14T13:22:45.906Z,1.43
2019-05-14T13:25:11.999Z,1.30
2019-05-14T13:27:41.453Z,1.30
2019-05-14T13:30:10.949Z,1.43
2019-05-14T13:32:40.166Z,1.27
2019-05-14T13:35:13.582Z,1.57
2019-05-14T13:37:40.707Z,1.47
2019-05-14T13:40:13.634Z,1.30
2019-05-14T13:42:44.462Z,1.20
2019-05-14T13:45:12.288Z,1.10
2019-05-14T13:47:41.439Z,1.33
2019-05-14T13:50:11.808Z,1.00
2019-05-14T13:52:58.430Z,1.57
2019-05-14T13:55:11.873Z,1.40
2019-05-14T13:57:41.108Z,1.30
2019-05-14T14:00:12.179Z,1.13
2019-05-14T14:02:41.477Z,1.20
2019-05-14T14:05:10.965Z,1.27
2019-05-14T14:07:43.880Z,1.67
2019-05-14T14:10:11.249Z,1.43
2019-05-14T14:12:40.777Z,1.40
2019-05-14T14:15:10.392Z,1.27
2019-05-14T14:17:39.941Z,1.00
2019-05-14T14:20:09.725Z,1.30
2019-05-14T14:22:40.060Z,1.33
2019-05-14T14:25:10.004Z,1.20
2019-05-14T14:27:41.070Z,1.17
2019-05-14T14:30:11.077Z,1.10
2019-05-14T14:32:40.979Z,1.23
2019-05-14T14:35:10.467Z,1.27
2019-05-14T14:37:40.257Z,1.50
2019-05-14T14:40:10.871Z,1.20
2019-05-14T14:42:40.763Z,1.40
2019-05-14T14:45:11.076Z,1.40
2019-05-14T14:47:40.320Z,1.00
2019-05-14T14:50:10.038Z,1.10
2019-05-14T14:52:39.221Z,1.13
2019-05-14T14:55:08.458Z,1.07
2019-05-14T14:57:43.666Z,1.60
2019-05-14T15:00:10.427Z,1.50
2019-05-14T15:02:41.077Z,1.10
2019-05-14T15:05:14.183Z,1.10
2019-05-14T15:07:42.005Z,1.00
2019-05-14T15:10:11.566Z,1.13
2019-05-14T15:12:40.789Z,1.20
2019-05-14T15:15:10.767Z,1.00
2019-05-14T15:17:39.910Z,1.10
2019-05-14T15:20:11.449Z,0.90
2019-05-14T15:22:40.707Z,1.30
2019-05-14T15:25:10.002Z,1.10
2019-05-14T15:27:39.141Z,1.00
2019-05-14T15:30:08.838Z,1.10
2019-05-14T15:32:38.009Z,1.03
2019-05-14T15:35:11.048Z,1.00
2019-05-14T15:37:42.755Z,1.20
2019-05-14T15:40:11.679Z,1.20
2019-05-14T15:42:40.817Z,0.93
2019-05-14T15:45:10.146Z,1.20
2019-05-14T15:47:39.358Z,1.03
2019-05-14T15:50:10.120Z,1.07
2019-05-14T15:52:39.912Z,1.10
2019-05-14T15:55:10.929Z,1.20
2019-05-14T15:57:40.457Z,1.60
2019-05-14T16:00:10.796Z,1.00
2019-05-14T16:02:40.135Z,1.10
2019-05-14T16:05:10.328Z,1.07
2019-05-14T16:07:39.625Z,1.00
2019-05-14T16:10:09.568Z,1.00
2019-05-14T16:12:39.793Z,1.23
2019-05-14T16:15:10.167Z,1.30
2019-05-14T16:17:48.066Z,1.00
2019-05-14T16:20:10.593Z,1.10
2019-05-14T16:22:40.220Z,1.00
2019-05-14T16:25:10.006Z,0.87
2019-05-14T16:27:39.881Z,1.30
2019-05-14T16:30:10.258Z,1.40
2019-05-14T16:32:39.987Z,1.00
2019-05-14T16:35:09.585Z,1.07
2019-05-14T16:37:39.368Z,0.90
2019-05-14T16:40:10.269Z,1.20
2019-05-14T16:42:39.957Z,1.30
2019-05-14T16:45:10.012Z,1.50
2019-05-14T16:47:39.845Z,1.30
2019-05-14T16:50:10.121Z,0.90
2019-05-14T16:52:42.292Z,1.20
2019-05-14T16:55:23.084Z,1.10
2019-05-14T16:57:41.348Z,1.50
2019-05-14T17:00:12.225Z,1.30
2019-05-14T17:02:41.418Z,1.20
2019-05-14T17:05:10.945Z,1.20
2019-05-14T17:07:40.090Z,1.10
2019-05-14T17:10:09.358Z,1.20
2019-05-14T17:12:51.979Z,1.30
2019-05-14T17:15:09.894Z,1.20
2019-05-14T17:17:39.409Z,1.17
2019-05-14T17:20:08.827Z,0.80
2019-05-14T17:22:39.872Z,1.10
2019-05-14T17:25:09.784Z,1.00
2019-05-14T17:27:39.478Z,1.43
2019-05-14T17:30:09.681Z,1.80
2019-05-14T17:32:39.432Z,1.97
2019-05-14T17:35:10.700Z,1.00
2019-05-14T17:37:40.125Z,1.13
2019-05-14T17:40:09.680Z,1.00
2019-05-14T17:42:39.634Z,1.30
2019-05-14T17:45:10.460Z,2.53
2019-05-14T17:47:40.108Z,1.87
2019-05-14T17:50:10.797Z,0.90
2019-05-14T17:52:43.002Z,0.90
2019-05-14T17:55:12.213Z,1.40
2019-05-14T17:57:48.037Z,1.00
2019-05-14T18:00:12.620Z,1.03
2019-05-14T18:02:41.805Z,1.10
2019-05-14T18:05:11.136Z,1.00
2019-05-14T18:07:40.319Z,1.00
2019-05-14T18:10:09.957Z,0.93
2019-05-14T18:12:39.973Z,1.17
2019-05-14T18:15:09.849Z,0.97
2019-05-14T18:17:39.588Z,0.97
2019-05-14T18:20:09.490Z,0.80
2019-05-14T18:22:42.007Z,1.00
2019-05-14T18:25:09.788Z,1.10
2019-05-14T18:27:39.469Z,0.97
2019-05-14T18:30:09.625Z,1.00
2019-05-14T18:32:38.829Z,1.20
2019-05-14T18:35:07.981Z,1.50
2019-05-14T18:37:38.801Z,2.00
2019-05-14T18:40:09.164Z,0.90
2019-05-14T18:42:39.212Z,1.10
2019-05-14T18:45:09.130Z,1.03
2019-05-14T18:47:39.730Z,0.97
2019-05-14T18:50:09.674Z,1.10
2019-05-14T18:52:39.860Z,0.80
2019-05-14T18:55:10.024Z,3.70
2019-05-14T18:57:39.280Z,2.03
2019-05-14T19:00:10.010Z,1.50
2019-05-14T19:02:39.467Z,1.70
2019-05-14T19:05:09.277Z,1.20
2019-05-14T19:07:39.518Z,1.10
2019-05-14T19:10:09.539Z,1.20
2019-05-14T19:12:39.124Z,1.00
2019-05-14T19:15:09.711Z,1.00
2019-05-14T19:17:38.973Z,1.17
2019-05-14T19:20:08.925Z,1.13
2019-05-14T19:22:39.626Z,1.10
2019-05-14T19:25:09.299Z,1.20
2019-05-14T19:27:38.532Z,1.30
2019-05-14T19:30:08.556Z,1.03
2019-05-14T19:32:39.361Z,1.13
2019-05-14T19:35:08.928Z,1.20
2019-05-14T19:37:39.026Z,1.03
2019-05-14T19:40:09.326Z,1.13
2019-05-14T19:42:39.140Z,1.20
2019-05-14T19:45:09.735Z,1.10
2019-05-14T19:47:40.097Z,2.57
2019-05-14T19:50:10.693Z,1.30
2019-05-14T19:52:39.929Z,0.90
2019-05-14T19:55:09.208Z,1.20
2019-05-14T19:57:38.609Z,0.90
2019-05-14T20:00:09.769Z,1.10
2019-05-14T20:02:39.132Z,1.30
2019-05-14T20:05:09.255Z,1.60
2019-05-14T20:07:41.286Z,1.30
2019-05-14T20:10:10.905Z,1.37
2019-05-14T20:12:40.116Z,1.97
2019-05-14T20:15:09.677Z,1.40
2019-05-14T20:17:39.075Z,1.50
2019-05-14T20:20:09.913Z,1.20
2019-05-14T20:22:39.835Z,1.20
2019-05-14T20:25:09.759Z,1.07
2019-05-14T20:27:39.365Z,1.47
2019-05-14T20:30:10.222Z,1.20
2019-05-14T20:32:39.395Z,0.97
2019-05-14T20:35:09.255Z,2.00
2019-05-14T20:37:39.099Z,1.50
2019-05-14T20:40:09.212Z,1.40
2019-05-14T20:42:39.280Z,1.20
2019-05-14T20:45:09.338Z,1.43
2019-05-14T20:47:39.196Z,1.13
2019-05-14T20:50:09.158Z,1.33
2019-05-14T20:52:38.548Z,1.10
2019-05-14T20:55:09.465Z,1.00
2019-05-14T20:57:39.047Z,1.30
2019-05-14T21:00:11.576Z,0.80
2019-05-14T21:02:40.997Z,1.33
2019-05-14T21:05:13.643Z,1.00
2019-05-14T21:07:41.242Z,1.20
2019-05-14T21:10:10.449Z,1.55
2019-05-14T21:12:39.711Z,1.60
2019-05-14T21:15:09.776Z,2.07
2019-05-14T21:17:39.238Z,1.03
2019-05-14T21:20:09.644Z,1.20
2019-05-14T21:22:40.119Z,1.40
2019-05-14T21:25:12.557Z,1.33
2019-05-14T21:27:48.408Z,1.30
2019-05-14T21:30:12.355Z,1.30
2019-05-14T21:32:43.359Z,1.10
2019-05-14T21:35:12.578Z,1.13
2019-05-14T21:37:41.751Z,1.37
2019-05-14T21:40:11.421Z,1.40
2019-05-14T21:42:40.573Z,1.10
2019-05-14T21:45:10.110Z,1.10
2019-05-14T21:47:39.389Z,0.83
2019-05-14T21:50:09.272Z,1.15
2019-05-14T21:52:41.790Z,2.60
2019-05-14T21:55:09.467Z,1.30
2019-05-14T21:57:52.243Z,0.90
2019-05-14T22:00:14.967Z,2.00
2019-05-14T22:02:44.350Z,1.27
2019-05-14T22:05:13.745Z,1.20
2019-05-14T22:07:42.918Z,0.90
2019-05-14T22:10:12.011Z,1.07
2019-05-14T22:12:41.116Z,1.20
2019-05-14T22:15:10.555Z,0.90
2019-05-14T22:17:39.681Z,1.00
2019-05-14T22:20:09.024Z,0.90
2019-05-14T22:22:39.038Z,2.00
2019-05-14T22:25:08.633Z,1.80
2019-05-14T22:27:39.342Z,1.20
2019-05-14T22:30:09.131Z,1.13
2019-05-14T22:32:38.502Z,1.50
2019-05-14T22:35:08.570Z,1.20
2019-05-14T22:37:39.134Z,1.40
2019-05-14T22:40:09.017Z,1.20
2019-05-14T22:42:39.308Z,1.77
2019-05-14T22:45:09.489Z,1.00
2019-05-14T22:47:40.526Z,1.20
2019-05-14T22:50:09.874Z,1.20
2019-05-14T22:52:39.006Z,1.07
2019-05-14T22:55:08.436Z,1.30
2019-05-14T22:57:39.365Z,1.10
2019-05-14T23:00:08.626Z,1.20
2019-05-14T23:02:38.275Z,1.00
2019-05-14T23:05:08.345Z,1.40
2019-05-14T23:07:39.516Z,1.20
2019-05-14T23:10:09.120Z,0.97
2019-05-14T23:12:38.804Z,1.20
2019-05-14T23:15:08.529Z,1.13
2019-05-14T23:17:38.909Z,1.40
2019-05-14T23:20:09.137Z,1.37
2019-05-14T23:22:39.292Z,1.07
2019-05-14T23:25:09.195Z,1.20
2019-05-14T23:27:39.306Z,1.20
2019-05-14T23:30:09.016Z,1.00
2019-05-14T23:32:38.686Z,1.17
2019-05-14T23:35:08.327Z,1.40
2019-05-14T23:37:37.553Z,1.00
2019-05-14T23:40:08.550Z,1.17
2019-05-14T23:42:39.259Z,1.10
2019-05-14T23:45:08.710Z,1.20
2019-05-14T23:47:38.458Z,1.20
2019-05-14T23:50:08.322Z,1.40
2019-05-14T23:52:38.575Z,1.70
2019-05-14T23:55:08.795Z,1.10
2019-05-14T23:57:38.027Z,1.03
